sensor_id;sensor_type;location;lat;lon;timestamp;temperature;humidity
16966;DHT22;8599;47.852;12.070;2023-07-31T00:01:16;19.40;99.90
16966;DHT22;8599;47.852;12.070;2023-07-31T00:03:43;19.40;99.90
16966;DHT22;8599;47.852;12.070;2023-07-31T00:06:10;19.50;99.90
16966;DHT22;8599;47.852;12.070;2023-07-31T00:08:37;19.40;99.90
16966;DHT22;8599;47.852;12.070;2023-07-31T00:11:05;19.40;99.90
16966;DHT22;8599;47.852;12.070;2023-07-31T00:13:32;19.40;99.90
16966;DHT22;8599;47.852;12.070;2023-07-31T00:15:59;19.40;99.90
16966;DHT22;8599;47.852;12.070;2023-07-31T00:18:26;19.40;99.90
16966;DHT22;8599;47.852;12.070;2023-07-31T00:20:53;19.30;99.90
16966;DHT22;8599;47.852;12.070;2023-07-31T00:23:20;19.30;99.90
16966;DHT22;8599;47.852;12.070;2023-07-31T00:25:46;19.30;99.90
16966;DHT22;8599;47.852;12.070;2023-07-31T00:28:14;19.30;99.90
16966;DHT22;8599;47.852;12.070;2023-07-31T00:30:41;19.20;99.90
16966;DHT22;8599;47.852;12.070;2023-07-31T00:33:11;19.20;99.90
16966;DHT22;8599;47.852;12.070;2023-07-31T00:35:38;19.20;99.90
16966;DHT22;8599;47.852;12.070;2023-07-31T00:38:05;19.20;99.90
16966;DHT22;8599;47.852;12.070;2023-07-31T00:40:34;19.10;99.90
16966;DHT22;8599;47.852;12.070;2023-07-31T00:43:02;19.10;99.90
16966;DHT22;8599;47.852;12.070;2023-07-31T00:45:31;19.00;99.90
16966;DHT22;8599;47.852;12.070;2023-07-31T00:47:59;19.00;99.90
16966;DHT22;8599;47.852;12.070;2023-07-31T00:50:27;18.90;99.90
16966;DHT22;8599;47.852;12.070;2023-07-31T00:52:54;18.90;99.90
16966;DHT22;8599;47.852;12.070;2023-07-31T00:55:21;18.80;99.90
16966;DHT22;8599;47.852;12.070;2023-07-31T00:57:48;18.80;99.90
16966;DHT22;8599;47.852;12.070;2023-07-31T01:00:15;18.80;99.90
16966;DHT22;8599;47.852;12.070;2023-07-31T01:02:44;18.70;99.90
16966;DHT22;8599;47.852;12.070;2023-07-31T01:05:11;18.70;99.90
16966;DHT22;8599;47.852;12.070;2023-07-31T01:07:42;18.60;99.90
16966;DHT22;8599;47.852;12.070;2023-07-31T01:10:16;18.50;99.90
16966;DHT22;8599;47.852;12.070;2023-07-31T01:12:45;18.50;99.90
16966;DHT22;8599;47.852;12.070;2023-07-31T01:15:12;18.30;99.90
16966;DHT22;8599;47.852;12.070;2023-07-31T01:17:41;18.20;99.90
16966;DHT22;8599;47.852;12.070;2023-07-31T01:20:13;18.10;99.90
16966;DHT22;8599;47.852;12.070;2023-07-31T01:22:54;18.20;99.90
16966;DHT22;8599;47.852;12.070;2023-07-31T01:28:13;18.10;99.90
16966;DHT22;8599;47.852;12.070;2023-07-31T01:30:44;18.00;99.90
16966;DHT22;8599;47.852;12.070;2023-07-31T01:33:12;18.00;99.90
16966;DHT22;8599;47.852;12.070;2023-07-31T01:35:42;18.00;99.90
16966;DHT22;8599;47.852;12.070;2023-07-31T01:38:10;18.00;99.90
16966;DHT22;8599;47.852;12.070;2023-07-31T01:40:37;17.90;99.90
16966;DHT22;8599;47.852;12.070;2023-07-31T01:43:04;17.90;99.90
16966;DHT22;8599;47.852;12.070;2023-07-31T01:45:32;17.90;99.90
16966;DHT22;8599;47.852;12.070;2023-07-31T01:47:58;17.90;99.90
16966;DHT22;8599;47.852;12.070;2023-07-31T01:50:25;17.90;99.90
16966;DHT22;8599;47.852;12.070;2023-07-31T01:52:52;17.80;99.90
16966;DHT22;8599;47.852;12.070;2023-07-31T01:55:19;17.80;99.90
16966;DHT22;8599;47.852;12.070;2023-07-31T01:57:46;17.80;99.90
16966;DHT22;8599;47.852;12.070;2023-07-31T02:00:14;17.60;99.90
16966;DHT22;8599;47.852;12.070;2023-07-31T02:02:42;17.50;99.90
16966;DHT22;8599;47.852;12.070;2023-07-31T02:05:09;17.40;99.90
16966;DHT22;8599;47.852;12.070;2023-07-31T02:07:35;17.20;99.90
16966;DHT22;8599;47.852;12.070;2023-07-31T02:10:02;17.20;99.90
16966;DHT22;8599;47.852;12.070;2023-07-31T02:12:29;17.10;99.90
16966;DHT22;8599;47.852;12.070;2023-07-31T02:14:57;17.10;99.90
16966;DHT22;8599;47.852;12.070;2023-07-31T02:17:24;17.10;99.90
16966;DHT22;8599;47.852;12.070;2023-07-31T02:19:53;17.20;99.90
16966;DHT22;8599;47.852;12.070;2023-07-31T02:22:20;17.20;99.90
16966;DHT22;8599;47.852;12.070;2023-07-31T02:24:47;17.20;99.90
16966;DHT22;8599;47.852;12.070;2023-07-31T02:27:13;17.20;99.90
16966;DHT22;8599;47.852;12.070;2023-07-31T02:29:40;17.20;99.90
16966;DHT22;8599;47.852;12.070;2023-07-31T02:32:07;17.10;99.90
16966;DHT22;8599;47.852;12.070;2023-07-31T02:34:34;17.00;99.90
16966;DHT22;8599;47.852;12.070;2023-07-31T02:37:02;17.10;99.90
16966;DHT22;8599;47.852;12.070;2023-07-31T02:39:29;17.00;99.90
16966;DHT22;8599;47.852;12.070;2023-07-31T02:41:56;17.10;99.90
16966;DHT22;8599;47.852;12.070;2023-07-31T02:44:22;17.20;99.90
16966;DHT22;8599;47.852;12.070;2023-07-31T02:46:49;17.30;99.90
16966;DHT22;8599;47.852;12.070;2023-07-31T02:49:16;17.40;99.90
16966;DHT22;8599;47.852;12.070;2023-07-31T02:51:43;17.50;99.90
16966;DHT22;8599;47.852;12.070;2023-07-31T02:54:11;17.50;99.90
16966;DHT22;8599;47.852;12.070;2023-07-31T02:56:38;17.60;99.90
16966;DHT22;8599;47.852;12.070;2023-07-31T02:59:05;17.60;99.90
16966;DHT22;8599;47.852;12.070;2023-07-31T03:01:31;17.50;99.90
16966;DHT22;8599;47.852;12.070;2023-07-31T03:03:58;17.50;99.90
16966;DHT22;8599;47.852;12.070;2023-07-31T03:06:25;17.50;99.90
16966;DHT22;8599;47.852;12.070;2023-07-31T03:08:52;17.50;99.90
16966;DHT22;8599;47.852;12.070;2023-07-31T03:11:20;17.50;99.90
16966;DHT22;8599;47.852;12.070;2023-07-31T03:13:47;17.60;99.90
16966;DHT22;8599;47.852;12.070;2023-07-31T03:16:14;17.60;99.90
16966;DHT22;8599;47.852;12.070;2023-07-31T03:18:41;17.60;99.90
16966;DHT22;8599;47.852;12.070;2023-07-31T03:21:07;17.60;99.90
16966;DHT22;8599;47.852;12.070;2023-07-31T03:23:34;17.60;99.90
16966;DHT22;8599;47.852;12.070;2023-07-31T03:26:07;17.50;99.90
16966;DHT22;8599;47.852;12.070;2023-07-31T03:28:35;17.50;99.90
16966;DHT22;8599;47.852;12.070;2023-07-31T03:31:02;17.50;99.90
16966;DHT22;8599;47.852;12.070;2023-07-31T03:33:29;17.50;99.90
16966;DHT22;8599;47.852;12.070;2023-07-31T03:35:56;17.40;99.90
16966;DHT22;8599;47.852;12.070;2023-07-31T03:38:23;17.50;99.90
16966;DHT22;8599;47.852;12.070;2023-07-31T03:40:50;17.40;99.90
16966;DHT22;8599;47.852;12.070;2023-07-31T03:43:17;17.40;99.90
16966;DHT22;8599;47.852;12.070;2023-07-31T03:45:45;17.30;99.90
16966;DHT22;8599;47.852;12.070;2023-07-31T03:48:11;17.40;99.90
16966;DHT22;8599;47.852;12.070;2023-07-31T03:50:38;17.40;99.90
16966;DHT22;8599;47.852;12.070;2023-07-31T03:53:05;17.40;99.90
16966;DHT22;8599;47.852;12.070;2023-07-31T03:55:32;17.40;99.90
16966;DHT22;8599;47.852;12.070;2023-07-31T03:57:59;17.40;99.90
16966;DHT22;8599;47.852;12.070;2023-07-31T04:00:26;17.40;99.90
16966;DHT22;8599;47.852;12.070;2023-07-31T04:02:54;17.40;99.90
16966;DHT22;8599;47.852;12.070;2023-07-31T04:05:21;17.40;99.90
16966;DHT22;8599;47.852;12.070;2023-07-31T04:07:48;17.40;99.90
16966;DHT22;8599;47.852;12.070;2023-07-31T04:10:15;17.40;99.90
16966;DHT22;8599;47.852;12.070;2023-07-31T04:12:42;17.50;99.90
16966;DHT22;8599;47.852;12.070;2023-07-31T04:15:09;17.50;99.90
16966;DHT22;8599;47.852;12.070;2023-07-31T04:17:36;17.50;99.90
16966;DHT22;8599;47.852;12.070;2023-07-31T04:20:05;17.60;99.90
16966;DHT22;8599;47.852;12.070;2023-07-31T04:22:32;17.60;99.90
16966;DHT22;8599;47.852;12.070;2023-07-31T04:24:59;17.60;99.90
16966;DHT22;8599;47.852;12.070;2023-07-31T04:27:26;17.60;99.90
16966;DHT22;8599;47.852;12.070;2023-07-31T04:29:52;17.60;99.90
16966;DHT22;8599;47.852;12.070;2023-07-31T04:32:19;17.60;99.90
16966;DHT22;8599;47.852;12.070;2023-07-31T04:34:46;17.70;99.90
16966;DHT22;8599;47.852;12.070;2023-07-31T04:37:14;17.70;99.90
16966;DHT22;8599;47.852;12.070;2023-07-31T04:39:41;17.70;99.90
16966;DHT22;8599;47.852;12.070;2023-07-31T04:42:08;17.80;99.90
16966;DHT22;8599;47.852;12.070;2023-07-31T04:44:35;17.80;99.90
16966;DHT22;8599;47.852;12.070;2023-07-31T04:47:02;17.80;99.90
16966;DHT22;8599;47.852;12.070;2023-07-31T04:49:28;18.00;99.90
16966;DHT22;8599;47.852;12.070;2023-07-31T04:51:55;18.00;99.90
16966;DHT22;8599;47.852;12.070;2023-07-31T04:54:23;18.00;99.90
16966;DHT22;8599;47.852;12.070;2023-07-31T04:56:50;18.00;99.90
16966;DHT22;8599;47.852;12.070;2023-07-31T04:59:17;18.00;99.90
16966;DHT22;8599;47.852;12.070;2023-07-31T05:01:44;18.00;99.90
16966;DHT22;8599;47.852;12.070;2023-07-31T05:04:13;18.00;99.90
16966;DHT22;8599;47.852;12.070;2023-07-31T05:06:40;17.90;99.90
16966;DHT22;8599;47.852;12.070;2023-07-31T05:09:06;18.00;99.90
16966;DHT22;8599;47.852;12.070;2023-07-31T05:11:36;18.00;99.90
16966;DHT22;8599;47.852;12.070;2023-07-31T05:14:02;18.10;99.90
16966;DHT22;8599;47.852;12.070;2023-07-31T05:16:29;18.20;99.90
16966;DHT22;8599;47.852;12.070;2023-07-31T05:18:56;18.30;99.90
16966;DHT22;8599;47.852;12.070;2023-07-31T05:21:23;18.40;99.90
16966;DHT22;8599;47.852;12.070;2023-07-31T05:23:50;18.50;99.90
16966;DHT22;8599;47.852;12.070;2023-07-31T05:26:16;18.50;99.90
16966;DHT22;8599;47.852;12.070;2023-07-31T05:28:44;18.60;99.90
16966;DHT22;8599;47.852;12.070;2023-07-31T05:31:11;18.60;99.90
16966;DHT22;8599;47.852;12.070;2023-07-31T05:33:38;18.80;99.90
16966;DHT22;8599;47.852;12.070;2023-07-31T05:36:05;19.00;99.90
16966;DHT22;8599;47.852;12.070;2023-07-31T05:38:32;18.90;99.90
16966;DHT22;8599;47.852;12.070;2023-07-31T05:40:59;18.90;99.90
16966;DHT22;8599;47.852;12.070;2023-07-31T05:43:25;18.90;99.90
16966;DHT22;8599;47.852;12.070;2023-07-31T05:45:53;18.90;99.90
16966;DHT22;8599;47.852;12.070;2023-07-31T05:48:20;18.90;99.90
16966;DHT22;8599;47.852;12.070;2023-07-31T05:50:47;19.00;99.90
16966;DHT22;8599;47.852;12.070;2023-07-31T05:53:14;19.20;99.90
16966;DHT22;8599;47.852;12.070;2023-07-31T05:55:41;19.30;99.90
16966;DHT22;8599;47.852;12.070;2023-07-31T05:58:08;19.30;99.90
16966;DHT22;8599;47.852;12.070;2023-07-31T06:00:35;19.30;99.90
16966;DHT22;8599;47.852;12.070;2023-07-31T06:03:03;19.30;99.90
16966;DHT22;8599;47.852;12.070;2023-07-31T06:05:30;19.40;99.90
16966;DHT22;8599;47.852;12.070;2023-07-31T06:07:57;19.40;99.90
16966;DHT22;8599;47.852;12.070;2023-07-31T06:10:24;19.40;99.90
16966;DHT22;8599;47.852;12.070;2023-07-31T06:12:51;19.40;99.90
16966;DHT22;8599;47.852;12.070;2023-07-31T06:15:19;19.40;99.90
16966;DHT22;8599;47.852;12.070;2023-07-31T06:17:46;19.40;99.90
16966;DHT22;8599;47.852;12.070;2023-07-31T06:20:14;19.40;99.90
16966;DHT22;8599;47.852;12.070;2023-07-31T06:22:41;19.50;99.90
16966;DHT22;8599;47.852;12.070;2023-07-31T06:25:08;19.50;99.90
16966;DHT22;8599;47.852;12.070;2023-07-31T06:27:35;19.60;99.90
16966;DHT22;8599;47.852;12.070;2023-07-31T06:30:02;19.60;99.90
16966;DHT22;8599;47.852;12.070;2023-07-31T06:32:29;19.60;99.90
16966;DHT22;8599;47.852;12.070;2023-07-31T06:34:56;19.50;99.90
16966;DHT22;8599;47.852;12.070;2023-07-31T06:37:24;19.60;99.90
16966;DHT22;8599;47.852;12.070;2023-07-31T06:39:51;19.70;99.90
16966;DHT22;8599;47.852;12.070;2023-07-31T06:42:18;19.60;99.90
16966;DHT22;8599;47.852;12.070;2023-07-31T06:44:44;19.70;99.90
16966;DHT22;8599;47.852;12.070;2023-07-31T06:47:11;19.80;99.90
16966;DHT22;8599;47.852;12.070;2023-07-31T06:49:38;19.80;99.90
16966;DHT22;8599;47.852;12.070;2023-07-31T06:52:05;19.80;99.90
16966;DHT22;8599;47.852;12.070;2023-07-31T06:54:34;19.80;99.90
16966;DHT22;8599;47.852;12.070;2023-07-31T06:57:00;19.90;99.90
16966;DHT22;8599;47.852;12.070;2023-07-31T06:59:27;20.00;99.90
16966;DHT22;8599;47.852;12.070;2023-07-31T07:01:54;20.00;99.90
16966;DHT22;8599;47.852;12.070;2023-07-31T07:04:21;20.30;99.90
16966;DHT22;8599;47.852;12.070;2023-07-31T07:06:48;20.20;99.90
16966;DHT22;8599;47.852;12.070;2023-07-31T07:09:14;20.20;99.90
16966;DHT22;8599;47.852;12.070;2023-07-31T07:11:42;20.10;99.90
16966;DHT22;8599;47.852;12.070;2023-07-31T07:14:09;20.20;99.90
16966;DHT22;8599;47.852;12.070;2023-07-31T07:16:36;20.20;99.90
16966;DHT22;8599;47.852;12.070;2023-07-31T07:19:03;20.30;99.90
16966;DHT22;8599;47.852;12.070;2023-07-31T07:21:30;20.30;99.90
16966;DHT22;8599;47.852;12.070;2023-07-31T07:23:56;20.30;99.90
16966;DHT22;8599;47.852;12.070;2023-07-31T07:26:23;20.30;99.90
16966;DHT22;8599;47.852;12.070;2023-07-31T07:28:52;20.30;99.90
16966;DHT22;8599;47.852;12.070;2023-07-31T07:31:18;20.30;99.90
16966;DHT22;8599;47.852;12.070;2023-07-31T07:33:45;20.40;99.90
16966;DHT22;8599;47.852;12.070;2023-07-31T07:36:12;20.50;99.90
16966;DHT22;8599;47.852;12.070;2023-07-31T07:38:39;20.60;99.90
16966;DHT22;8599;47.852;12.070;2023-07-31T07:41:06;20.70;99.90
16966;DHT22;8599;47.852;12.070;2023-07-31T07:43:33;20.70;99.90
16966;DHT22;8599;47.852;12.070;2023-07-31T07:46:01;20.80;99.90
16966;DHT22;8599;47.852;12.070;2023-07-31T07:48:28;20.90;99.90
16966;DHT22;8599;47.852;12.070;2023-07-31T07:50:55;20.80;99.90
16966;DHT22;8599;47.852;12.070;2023-07-31T07:53:22;20.70;99.90
16966;DHT22;8599;47.852;12.070;2023-07-31T07:55:49;20.70;99.90
16966;DHT22;8599;47.852;12.070;2023-07-31T07:58:16;20.80;99.90
16966;DHT22;8599;47.852;12.070;2023-07-31T08:00:48;20.90;99.90
16966;DHT22;8599;47.852;12.070;2023-07-31T08:03:17;20.90;99.90
16966;DHT22;8599;47.852;12.070;2023-07-31T08:05:44;21.20;99.90
16966;DHT22;8599;47.852;12.070;2023-07-31T08:08:14;21.20;99.90
16966;DHT22;8599;47.852;12.070;2023-07-31T08:10:41;21.30;99.90
16966;DHT22;8599;47.852;12.070;2023-07-31T08:13:09;21.40;99.90
16966;DHT22;8599;47.852;12.070;2023-07-31T08:15:36;21.40;99.90
16966;DHT22;8599;47.852;12.070;2023-07-31T08:18:03;21.50;99.90
16966;DHT22;8599;47.852;12.070;2023-07-31T08:20:31;21.50;99.90
16966;DHT22;8599;47.852;12.070;2023-07-31T08:22:58;21.50;99.90
16966;DHT22;8599;47.852;12.070;2023-07-31T08:25:25;21.50;99.90
16966;DHT22;8599;47.852;12.070;2023-07-31T08:27:52;21.40;99.90
16966;DHT22;8599;47.852;12.070;2023-07-31T08:30:19;21.50;99.90
16966;DHT22;8599;47.852;12.070;2023-07-31T08:32:46;21.50;99.90
16966;DHT22;8599;47.852;12.070;2023-07-31T08:35:13;21.60;99.90
16966;DHT22;8599;47.852;12.070;2023-07-31T08:37:41;21.50;99.90
16966;DHT22;8599;47.852;12.070;2023-07-31T08:40:09;21.40;99.90
16966;DHT22;8599;47.852;12.070;2023-07-31T08:42:43;21.40;99.90
16966;DHT22;8599;47.852;12.070;2023-07-31T08:45:13;21.30;99.90
16966;DHT22;8599;47.852;12.070;2023-07-31T08:47:42;21.20;99.90
16966;DHT22;8599;47.852;12.070;2023-07-31T08:50:10;21.20;99.90
16966;DHT22;8599;47.852;12.070;2023-07-31T08:52:37;21.30;99.90
16966;DHT22;8599;47.852;12.070;2023-07-31T08:55:06;21.40;99.90
16966;DHT22;8599;47.852;12.070;2023-07-31T08:57:35;21.40;99.90
16966;DHT22;8599;47.852;12.070;2023-07-31T09:00:03;21.50;99.90
16966;DHT22;8599;47.852;12.070;2023-07-31T09:02:35;21.60;99.90
16966;DHT22;8599;47.852;12.070;2023-07-31T09:05:04;21.80;99.90
16966;DHT22;8599;47.852;12.070;2023-07-31T09:07:34;21.80;99.90
16966;DHT22;8599;47.852;12.070;2023-07-31T09:10:01;22.00;99.90
16966;DHT22;8599;47.852;12.070;2023-07-31T09:12:29;22.10;99.90
16966;DHT22;8599;47.852;12.070;2023-07-31T09:14:57;21.90;99.90
16966;DHT22;8599;47.852;12.070;2023-07-31T09:17:30;21.90;99.90
16966;DHT22;8599;47.852;12.070;2023-07-31T09:19:57;21.70;99.90
16966;DHT22;8599;47.852;12.070;2023-07-31T09:22:32;21.70;99.90
16966;DHT22;8599;47.852;12.070;2023-07-31T09:25:13;21.70;99.90
16966;DHT22;8599;47.852;12.070;2023-07-31T09:27:49;21.80;99.90
16966;DHT22;8599;47.852;12.070;2023-07-31T09:30:16;21.80;99.90
16966;DHT22;8599;47.852;12.070;2023-07-31T09:32:44;21.80;99.90
16966;DHT22;8599;47.852;12.070;2023-07-31T09:35:19;21.90;99.90
16966;DHT22;8599;47.852;12.070;2023-07-31T09:37:49;22.00;99.90
16966;DHT22;8599;47.852;12.070;2023-07-31T09:40:26;22.00;99.90
16966;DHT22;8599;47.852;12.070;2023-07-31T09:42:59;22.00;99.90
16966;DHT22;8599;47.852;12.070;2023-07-31T09:45:26;22.00;99.90
16966;DHT22;8599;47.852;12.070;2023-07-31T09:47:53;22.10;99.90
16966;DHT22;8599;47.852;12.070;2023-07-31T09:50:21;22.10;99.90
16966;DHT22;8599;47.852;12.070;2023-07-31T09:52:49;22.10;99.90
16966;DHT22;8599;47.852;12.070;2023-07-31T09:55:16;22.10;99.90
16966;DHT22;8599;47.852;12.070;2023-07-31T09:57:45;22.10;99.90
16966;DHT22;8599;47.852;12.070;2023-07-31T10:00:15;22.10;99.90
16966;DHT22;8599;47.852;12.070;2023-07-31T10:02:45;22.20;99.90
16966;DHT22;8599;47.852;12.070;2023-07-31T10:05:13;22.10;99.90
16966;DHT22;8599;47.852;12.070;2023-07-31T10:07:43;22.10;99.90
16966;DHT22;8599;47.852;12.070;2023-07-31T10:10:13;22.10;99.90
16966;DHT22;8599;47.852;12.070;2023-07-31T10:12:42;22.10;99.90
16966;DHT22;8599;47.852;12.070;2023-07-31T10:15:10;22.20;99.90
16966;DHT22;8599;47.852;12.070;2023-07-31T10:17:39;22.00;99.90
16966;DHT22;8599;47.852;12.070;2023-07-31T10:20:07;22.00;99.90
16966;DHT22;8599;47.852;12.070;2023-07-31T10:22:34;21.90;99.90
16966;DHT22;8599;47.852;12.070;2023-07-31T10:25:01;22.00;99.90
16966;DHT22;8599;47.852;12.070;2023-07-31T10:27:28;22.00;99.90
16966;DHT22;8599;47.852;12.070;2023-07-31T10:29:56;22.10;99.90
16966;DHT22;8599;47.852;12.070;2023-07-31T10:32:24;22.30;99.90
16966;DHT22;8599;47.852;12.070;2023-07-31T10:34:52;22.20;99.90
16966;DHT22;8599;47.852;12.070;2023-07-31T10:37:21;22.30;99.90
16966;DHT22;8599;47.852;12.070;2023-07-31T10:39:56;22.40;99.90
16966;DHT22;8599;47.852;12.070;2023-07-31T10:42:31;22.50;99.90
16966;DHT22;8599;47.852;12.070;2023-07-31T10:45:00;22.60;99.90
16966;DHT22;8599;47.852;12.070;2023-07-31T10:47:27;22.70;99.90
16966;DHT22;8599;47.852;12.070;2023-07-31T10:52:55;22.70;99.90
16966;DHT22;8599;47.852;12.070;2023-07-31T10:55:29;22.70;99.90
16966;DHT22;8599;47.852;12.070;2023-07-31T10:57:57;22.80;99.90
16966;DHT22;8599;47.852;12.070;2023-07-31T11:00:31;22.90;99.90
16966;DHT22;8599;47.852;12.070;2023-07-31T11:02:59;23.00;99.90
16966;DHT22;8599;47.852;12.070;2023-07-31T11:05:42;22.90;99.90
16966;DHT22;8599;47.852;12.070;2023-07-31T11:08:14;23.10;99.90
16966;DHT22;8599;47.852;12.070;2023-07-31T11:10:42;23.20;99.90
16966;DHT22;8599;47.852;12.070;2023-07-31T11:13:09;23.30;99.90
16966;DHT22;8599;47.852;12.070;2023-07-31T11:15:36;23.40;99.90
16966;DHT22;8599;47.852;12.070;2023-07-31T11:18:03;23.60;99.90
16966;DHT22;8599;47.852;12.070;2023-07-31T11:20:31;23.70;99.90
16966;DHT22;8599;47.852;12.070;2023-07-31T11:23:00;23.80;99.90
16966;DHT22;8599;47.852;12.070;2023-07-31T11:25:29;24.00;99.90
16966;DHT22;8599;47.852;12.070;2023-07-31T11:27:56;23.70;99.90
16966;DHT22;8599;47.852;12.070;2023-07-31T11:30:23;23.80;99.90
16966;DHT22;8599;47.852;12.070;2023-07-31T11:32:50;23.80;99.90
16966;DHT22;8599;47.852;12.070;2023-07-31T11:35:17;23.70;99.90
16966;DHT22;8599;47.852;12.070;2023-07-31T11:37:44;23.70;99.90
16966;DHT22;8599;47.852;12.070;2023-07-31T11:40:12;23.90;99.90
16966;DHT22;8599;47.852;12.070;2023-07-31T11:42:41;24.00;99.90
16966;DHT22;8599;47.852;12.070;2023-07-31T11:45:08;24.20;99.90
16966;DHT22;8599;47.852;12.070;2023-07-31T11:47:37;24.30;99.90
16966;DHT22;8599;47.852;12.070;2023-07-31T11:50:05;24.30;99.90
16966;DHT22;8599;47.852;12.070;2023-07-31T11:52:37;24.20;99.90
16966;DHT22;8599;47.852;12.070;2023-07-31T11:55:07;24.10;99.90
16966;DHT22;8599;47.852;12.070;2023-07-31T11:57:36;23.90;99.90
16966;DHT22;8599;47.852;12.070;2023-07-31T12:00:07;23.70;99.90
16966;DHT22;8599;47.852;12.070;2023-07-31T12:02:35;23.70;99.90
16966;DHT22;8599;47.852;12.070;2023-07-31T12:05:03;23.90;99.90
16966;DHT22;8599;47.852;12.070;2023-07-31T12:07:43;24.30;99.90
16966;DHT22;8599;47.852;12.070;2023-07-31T12:10:10;24.40;99.90
16966;DHT22;8599;47.852;12.070;2023-07-31T12:12:37;24.50;99.90
16966;DHT22;8599;47.852;12.070;2023-07-31T12:15:15;24.70;99.90
16966;DHT22;8599;47.852;12.070;2023-07-31T12:17:42;24.80;99.90
16966;DHT22;8599;47.852;12.070;2023-07-31T12:20:10;24.90;99.90
16966;DHT22;8599;47.852;12.070;2023-07-31T12:22:37;25.10;99.90
16966;DHT22;8599;47.852;12.070;2023-07-31T12:25:04;25.20;99.90
16966;DHT22;8599;47.852;12.070;2023-07-31T12:27:33;25.30;98.70
16966;DHT22;8599;47.852;12.070;2023-07-31T12:30:00;25.30;98.40
16966;DHT22;8599;47.852;12.070;2023-07-31T12:32:30;25.40;98.70
16966;DHT22;8599;47.852;12.070;2023-07-31T12:34:59;25.40;98.70
16966;DHT22;8599;47.852;12.070;2023-07-31T12:37:28;25.40;97.90
16966;DHT22;8599;47.852;12.070;2023-07-31T12:39:57;25.50;99.30
16966;DHT22;8599;47.852;12.070;2023-07-31T12:42:30;25.70;98.40
16966;DHT22;8599;47.852;12.070;2023-07-31T12:44:57;25.70;99.20
16966;DHT22;8599;47.852;12.070;2023-07-31T12:47:24;26.00;99.30
16966;DHT22;8599;47.852;12.070;2023-07-31T12:49:52;26.20;98.10
16966;DHT22;8599;47.852;12.070;2023-07-31T12:52:19;26.10;97.70
16966;DHT22;8599;47.852;12.070;2023-07-31T12:54:46;26.20;97.60
16966;DHT22;8599;47.852;12.070;2023-07-31T12:57:13;26.40;97.70
16966;DHT22;8599;47.852;12.070;2023-07-31T12:59:39;26.70;96.00
16966;DHT22;8599;47.852;12.070;2023-07-31T13:02:06;26.70;96.10
16966;DHT22;8599;47.852;12.070;2023-07-31T13:04:33;26.90;96.00
16966;DHT22;8599;47.852;12.070;2023-07-31T13:07:01;27.00;95.20
16966;DHT22;8599;47.852;12.070;2023-07-31T13:09:28;26.90;95.20
16966;DHT22;8599;47.852;12.070;2023-07-31T13:11:55;26.70;95.30
16966;DHT22;8599;47.852;12.070;2023-07-31T13:14:22;26.70;95.50
16966;DHT22;8599;47.852;12.070;2023-07-31T13:16:49;26.70;95.60
16966;DHT22;8599;47.852;12.070;2023-07-31T13:19:15;26.90;95.40
16966;DHT22;8599;47.852;12.070;2023-07-31T13:21:42;26.80;94.60
16966;DHT22;8599;47.852;12.070;2023-07-31T13:24:10;27.00;94.60
16966;DHT22;8599;47.852;12.070;2023-07-31T13:26:37;27.00;95.10
16966;DHT22;8599;47.852;12.070;2023-07-31T13:29:04;27.00;95.10
16966;DHT22;8599;47.852;12.070;2023-07-31T13:31:31;27.00;95.30
16966;DHT22;8599;47.852;12.070;2023-07-31T13:33:57;27.10;95.90
16966;DHT22;8599;47.852;12.070;2023-07-31T13:36:24;27.40;96.00
16966;DHT22;8599;47.852;12.070;2023-07-31T13:38:51;27.60;94.40
16966;DHT22;8599;47.852;12.070;2023-07-31T13:41:19;27.40;94.60
16966;DHT22;8599;47.852;12.070;2023-07-31T13:43:46;27.50;94.30
16966;DHT22;8599;47.852;12.070;2023-07-31T13:46:13;27.90;94.70
16966;DHT22;8599;47.852;12.070;2023-07-31T13:48:39;28.20;93.10
16966;DHT22;8599;47.852;12.070;2023-07-31T13:51:06;28.10;92.40
16966;DHT22;8599;47.852;12.070;2023-07-31T13:53:33;28.10;93.20
16966;DHT22;8599;47.852;12.070;2023-07-31T13:56:00;28.20;93.90
16966;DHT22;8599;47.852;12.070;2023-07-31T13:58:28;28.00;92.70
16966;DHT22;8599;47.852;12.070;2023-07-31T14:00:55;27.80;93.20
16966;DHT22;8599;47.852;12.070;2023-07-31T14:03:22;27.90;92.60
16966;DHT22;8599;47.852;12.070;2023-07-31T14:05:48;27.90;91.80
16966;DHT22;8599;47.852;12.070;2023-07-31T14:08:15;28.10;92.00
16966;DHT22;8599;47.852;12.070;2023-07-31T14:10:42;28.30;91.70
16966;DHT22;8599;47.852;12.070;2023-07-31T14:13:09;28.50;91.30
16966;DHT22;8599;47.852;12.070;2023-07-31T14:15:37;28.90;92.40
16966;DHT22;8599;47.852;12.070;2023-07-31T14:18:04;29.40;91.80
16966;DHT22;8599;47.852;12.070;2023-07-31T14:20:31;29.00;90.10
16966;DHT22;8599;47.852;12.070;2023-07-31T14:22:57;28.70;91.00
16966;DHT22;8599;47.852;12.070;2023-07-31T14:25:24;28.60;90.00
16966;DHT22;8599;47.852;12.070;2023-07-31T14:27:51;28.10;90.60
16966;DHT22;8599;47.852;12.070;2023-07-31T14:30:18;28.10;90.50
16966;DHT22;8599;47.852;12.070;2023-07-31T14:32:47;28.20;90.70
16966;DHT22;8599;47.852;12.070;2023-07-31T14:35:13;28.00;90.80
16966;DHT22;8599;47.852;12.070;2023-07-31T14:37:41;28.30;90.30
16966;DHT22;8599;47.852;12.070;2023-07-31T14:40:10;28.80;90.80
16966;DHT22;8599;47.852;12.070;2023-07-31T14:42:37;29.10;89.70
16966;DHT22;8599;47.852;12.070;2023-07-31T14:45:05;29.50;88.70
16966;DHT22;8599;47.852;12.070;2023-07-31T14:47:32;29.60;87.70
16966;DHT22;8599;47.852;12.070;2023-07-31T14:50:01;29.20;89.00
16966;DHT22;8599;47.852;12.070;2023-07-31T14:52:28;28.90;88.60
16966;DHT22;8599;47.852;12.070;2023-07-31T14:54:55;28.30;90.40
16966;DHT22;8599;47.852;12.070;2023-07-31T14:57:22;28.20;90.00
16966;DHT22;8599;47.852;12.070;2023-07-31T14:59:49;28.20;88.60
16966;DHT22;8599;47.852;12.070;2023-07-31T15:02:16;28.20;87.80
16966;DHT22;8599;47.852;12.070;2023-07-31T15:04:42;28.00;86.30
16966;DHT22;8599;47.852;12.070;2023-07-31T15:07:10;28.10;83.50
16966;DHT22;8599;47.852;12.070;2023-07-31T15:09:39;28.40;86.50
16966;DHT22;8599;47.852;12.070;2023-07-31T15:12:06;28.60;85.20
16966;DHT22;8599;47.852;12.070;2023-07-31T15:14:34;28.40;84.70
16966;DHT22;8599;47.852;12.070;2023-07-31T15:17:01;28.30;86.40
16966;DHT22;8599;47.852;12.070;2023-07-31T15:19:27;28.50;87.10
16966;DHT22;8599;47.852;12.070;2023-07-31T15:21:55;28.40;86.00
16966;DHT22;8599;47.852;12.070;2023-07-31T15:24:23;28.10;86.50
16966;DHT22;8599;47.852;12.070;2023-07-31T15:26:50;28.00;87.40
16966;DHT22;8599;47.852;12.070;2023-07-31T15:29:16;27.50;86.40
16966;DHT22;8599;47.852;12.070;2023-07-31T15:31:45;27.30;85.70
16966;DHT22;8599;47.852;12.070;2023-07-31T15:34:12;27.10;86.40
16966;DHT22;8599;47.852;12.070;2023-07-31T15:36:39;26.90;89.30
16966;DHT22;8599;47.852;12.070;2023-07-31T15:39:06;26.70;89.70